SBBI

Bacacheri Airport

Curitiba, Brazil
TAF SBBI 191530Z 1918/2006 27009KT 9999 SCT030 TX27/1918Z TN19/2006Z PROB30 TEMPO 1918/1920 8000 TSRA BKN010 FEW040CB BECMG 1922/1924 09005KT SCT010 BECMG 2000/2002 02007KT RMK PER
Issued Valid From Valid To
Sep-19 @ 15:30 UTC
(7 hours ago)
Sep-19 @ 18:00 UTC
(5 hours ago)
Sep-20 @ 06:00 UTC
(in 7 hours)
Expired Click to View Sep-19 @ 18:00 to Sep-19 @ 22:00
TAF SBBI 191530Z 1918/2006 27009KT 9999 SCT030 TX27/1918Z TN19/2006Z
Wind Visibility Clouds
270° at 9 knots 10,000+ meters
  • Scattered at 3,000' AGL
Expired Click to View Sep-19 @ 18:00 to Sep-19 @ 20:00
PROB30 TEMPO 1918/1920 8000 TSRA BKN010 FEW040CB
Visibility Clouds Conditions
7,998 meters
  • Broken at 1,000' AGL
  • Few at 4,000' AGL
  • Thunderstorm
  • Rain
Becoming Sep-19 @ 22:00 to Sep-20 @ 00:00
BECMG 1922/1924 09005KT SCT010
Wind Visibility Clouds
90° at 5 knots 10,000+ meters
  • Scattered at 1,000' AGL
Becoming Sep-20 @ 00:00 to Sep-20 @ 06:00
BECMG 2000/2002 02007KT RMK PER
Wind Visibility Clouds
20° at 7 knots 10,000+ meters
  • Scattered at 1,000' AGL
TAF SBBI 191530Z 1918/2006 27009KT 9999 SCT030 TX27/1918Z TN19/2006Z PROB30 TEMPO 1918/1920 8000 TSRA BKN010 FEW040CB BECMG 1922/1924 09005KT SCT010 BECMG 2000/2002 02007KT RMK PER
Issued Sep-19 @ 15:30 UTC
(7 hours ago)
Valid From Sep-19 @ 18:00 UTC
(5 hours ago)
Valid To Sep-20 @ 06:00 UTC
(in 7 hours)
Sep-19 @ 18:00 - Sep-19 @ 22:00
Wind Visibility
270° at 9 knots 10,000+ meters
Clouds
  • Scattered at 3,000' AGL
Sep-19 @ 18:00 - Sep-19 @ 20:00
Clouds
  • Broken at 1,000' AGL
  • Few at 4,000' AGL
Conditions
  • Thunderstorm
  • Rain
Becoming Sep-19 @ 22:00 - Sep-20 @ 00:00
Wind Visibility
90° at 5 knots 10,000+ meters
Clouds
  • Scattered at 1,000' AGL
Becoming Sep-20 @ 00:00 - Sep-20 @ 06:00
Wind Visibility
20° at 7 knots 10,000+ meters
Clouds
  • Scattered at 1,000' AGL